createdAt,value
2023-05-05T00:01:05.888Z,2.22
2023-05-05T00:03:37.736Z,2.10
2023-05-05T00:06:07.610Z,2.20
2023-05-05T00:08:51.055Z,2.25
2023-05-05T00:11:26.199Z,2.22
2023-05-05T00:13:58.658Z,2.40
2023-05-05T00:16:26.136Z,1.98
2023-05-05T00:18:54.694Z,2.60
2023-05-05T00:21:21.836Z,1.95
2023-05-05T00:23:49.375Z,2.30
2023-05-05T00:26:16.412Z,2.42
2023-05-05T00:28:44.021Z,2.45
2023-05-05T00:31:11.689Z,2.22
2023-05-05T00:33:38.726Z,2.42
2023-05-05T00:36:06.036Z,2.55
2023-05-05T00:38:33.109Z,2.45
2023-05-05T00:41:00.314Z,2.35
2023-05-05T00:43:27.925Z,2.63
2023-05-05T00:46:03.301Z,2.40
2023-05-05T00:48:31.651Z,2.53
2023-05-05T00:50:59.709Z,2.67
2023-05-05T00:53:27.965Z,2.88
2023-05-05T00:55:55.236Z,2.50
2023-05-05T00:58:22.442Z,2.88
2023-05-05T01:00:49.500Z,2.47
2023-05-05T01:03:17.099Z,2.10
2023-05-05T01:05:55.935Z,2.20
2023-05-05T01:08:36.339Z,2.00
2023-05-05T01:11:27.012Z,2.00
2023-05-05T01:14:16.668Z,2.13
2023-05-05T01:17:22.496Z,2.00
2023-05-05T01:19:52.736Z,1.95
2023-05-05T01:22:24.770Z,1.92
2023-05-05T01:25:21.676Z,2.08
2023-05-05T01:28:47.463Z,2.03
2023-05-05T01:31:45.662Z,1.70
2023-05-05T01:34:15.832Z,1.52
2023-05-05T01:36:47.745Z,1.50
2023-05-05T01:39:16.912Z,1.67
2023-05-05T01:41:47.908Z,1.60
2023-05-05T01:44:16.985Z,1.55
2023-05-05T01:46:44.116Z,1.90
2023-05-05T01:49:14.324Z,1.90
2023-05-05T01:51:42.606Z,1.77
2023-05-05T01:54:10.737Z,1.45
2023-05-05T01:56:42.997Z,1.40
2023-05-05T01:59:11.599Z,1.65
2023-05-05T02:01:45.007Z,1.42
2023-05-05T02:04:14.694Z,1.67
2023-05-05T02:06:44.801Z,1.90
2023-05-05T02:09:14.468Z,1.67
2023-05-05T02:11:43.108Z,1.73
2023-05-05T02:14:13.032Z,1.85
2023-05-05T02:16:41.651Z,1.67
2023-05-05T02:19:09.189Z,1.50
2023-05-05T02:21:36.990Z,1.80
2023-05-05T02:24:04.739Z,1.45
2023-05-05T02:26:35.246Z,1.40
2023-05-05T02:29:15.390Z,1.50
2023-05-05T02:31:49.981Z,1.50
2023-05-05T02:34:25.094Z,1.42
2023-05-05T02:36:57.522Z,1.50
2023-05-05T02:39:43.836Z,1.42
2023-05-05T02:42:15.701Z,1.45
2023-05-05T02:44:45.051Z,1.60
2023-05-05T02:47:12.148Z,1.50
2023-05-05T02:49:39.206Z,1.60
2023-05-05T02:52:06.834Z,1.40
2023-05-05T02:54:34.048Z,1.63
2023-05-05T02:57:02.065Z,1.70
2023-05-05T03:00:10.403Z,1.42
2023-05-05T03:02:37.458Z,1.80
2023-05-05T03:05:10.065Z,1.65
2023-05-05T03:07:43.096Z,1.50
2023-05-05T03:10:15.362Z,1.52
2023-05-05T03:12:49.931Z,1.70
2023-05-05T03:15:18.278Z,1.30
2023-05-05T03:17:46.863Z,1.40
2023-05-05T03:20:15.042Z,1.92
2023-05-05T03:22:42.227Z,1.30
2023-05-05T03:25:09.633Z,1.30
2023-05-05T03:27:36.687Z,1.30
2023-05-05T03:30:04.056Z,1.65
2023-05-05T03:32:31.658Z,1.55
2023-05-05T03:34:58.816Z,1.50
2023-05-05T03:37:25.978Z,1.50
2023-05-05T03:39:53.147Z,1.70
2023-05-05T03:42:20.148Z,1.42
2023-05-05T03:44:47.231Z,1.63
2023-05-05T03:47:14.346Z,1.70
2023-05-05T03:49:41.739Z,1.58
2023-05-05T03:52:08.860Z,1.77
2023-05-05T03:54:36.416Z,1.77
2023-05-05T03:57:04.264Z,1.33
2023-05-05T03:59:31.572Z,1.40
2023-05-05T04:01:58.677Z,1.48
2023-05-05T04:04:25.902Z,1.50
2023-05-05T04:06:53.078Z,2.10
2023-05-05T04:09:20.104Z,1.90
2023-05-05T04:11:47.160Z,2.00
2023-05-05T04:14:14.401Z,2.42
2023-05-05T04:16:41.590Z,2.33
2023-05-05T04:19:08.678Z,2.28
2023-05-05T04:21:36.189Z,2.65
2023-05-05T04:24:03.680Z,2.80
2023-05-05T04:26:30.965Z,2.88
2023-05-05T04:28:58.413Z,2.80
2023-05-05T04:31:25.541Z,2.75
2023-05-05T04:33:52.704Z,2.03
2023-05-05T04:36:19.879Z,2.20
2023-05-05T04:38:47.011Z,2.42
2023-05-05T04:41:14.117Z,2.50
2023-05-05T04:43:41.618Z,2.25
2023-05-05T04:46:08.721Z,2.65
2023-05-05T04:48:37.371Z,2.20
2023-05-05T04:51:06.553Z,2.05
2023-05-05T04:53:33.945Z,2.05
2023-05-05T04:56:01.918Z,1.88
2023-05-05T04:58:29.446Z,1.95
2023-05-05T05:00:56.508Z,2.38
2023-05-05T05:03:23.926Z,2.15
2023-05-05T05:05:51.412Z,2.00
2023-05-05T05:08:19.050Z,1.73
2023-05-05T05:10:46.514Z,2.50
2023-05-05T05:13:13.813Z,1.88
2023-05-05T05:15:41.139Z,2.40
2023-05-05T05:18:08.641Z,2.15
2023-05-05T05:20:35.725Z,3.10
2023-05-05T05:23:02.845Z,2.17
2023-05-05T05:25:31.081Z,2.25
2023-05-05T05:28:08.861Z,2.50
2023-05-05T05:30:37.354Z,2.13
2023-05-05T05:33:04.583Z,2.40
2023-05-05T05:35:31.906Z,2.08
2023-05-05T05:37:58.922Z,2.25
2023-05-05T05:40:26.581Z,1.90
2023-05-05T05:42:53.662Z,1.88
2023-05-05T05:45:21.972Z,2.20
2023-05-05T05:47:49.651Z,1.98
2023-05-05T05:50:16.873Z,1.92
2023-05-05T05:52:43.941Z,1.67
2023-05-05T05:55:11.130Z,1.77
2023-05-05T05:57:38.222Z,1.60
2023-05-05T06:00:06.714Z,1.58
2023-05-05T06:02:34.240Z,2.25
2023-05-05T06:05:01.570Z,2.00
2023-05-05T06:07:28.640Z,1.50
2023-05-05T06:09:55.758Z,1.83
2023-05-05T06:12:22.883Z,1.70
2023-05-05T06:14:49.959Z,1.40
2023-05-05T06:17:17.182Z,1.73
2023-05-05T06:19:44.342Z,1.20
2023-05-05T06:22:11.717Z,1.17
2023-05-05T06:24:39.067Z,1.33
2023-05-05T06:27:06.180Z,1.50
2023-05-05T06:29:33.219Z,1.52
2023-05-05T06:32:01.680Z,1.20
2023-05-05T06:34:28.882Z,1.50
2023-05-05T06:36:56.062Z,1.40
2023-05-05T06:39:23.115Z,1.58
2023-05-05T06:41:50.218Z,1.45
2023-05-05T06:44:17.227Z,1.60
2023-05-05T06:46:44.283Z,1.55
2023-05-05T06:49:11.605Z,1.52
2023-05-05T06:51:40.079Z,1.70
2023-05-05T06:54:08.546Z,1.65
2023-05-05T06:56:35.708Z,1.40
2023-05-05T06:59:02.734Z,1.60
2023-05-05T07:01:41.075Z,1.70
2023-05-05T07:04:08.584Z,1.50
2023-05-05T07:06:35.842Z,1.65
2023-05-05T07:09:03.863Z,1.80
2023-05-05T07:11:31.027Z,1.90
2023-05-05T07:13:58.126Z,1.70
2023-05-05T07:16:27.489Z,1.80
2023-05-05T07:18:54.724Z,1.70
2023-05-05T07:21:21.806Z,1.35
2023-05-05T07:23:48.806Z,2.10
2023-05-05T07:26:16.102Z,2.08
2023-05-05T07:28:44.215Z,2.05
2023-05-05T07:31:11.289Z,2.20
2023-05-05T07:33:38.472Z,1.75
2023-05-05T07:36:05.914Z,1.73
2023-05-05T07:38:33.046Z,1.80
2023-05-05T07:41:00.256Z,1.70
2023-05-05T07:43:27.323Z,1.70
2023-05-05T07:45:55.046Z,1.35
2023-05-05T07:48:22.205Z,1.55
2023-05-05T07:50:49.251Z,1.50
2023-05-05T07:53:16.380Z,1.65
2023-05-05T07:55:43.551Z,1.48
2023-05-05T07:58:11.313Z,1.90
2023-05-05T08:00:39.408Z,1.60
2023-05-05T08:03:08.973Z,2.08
2023-05-05T08:05:38.864Z,2.33
2023-05-05T08:08:06.527Z,3.70
2023-05-05T08:10:33.754Z,2.92
2023-05-05T08:13:01.197Z,2.60
2023-05-05T08:15:28.469Z,2.15
2023-05-05T08:17:58.440Z,2.35
2023-05-05T08:20:29.251Z,2.08
2023-05-05T08:22:56.647Z,1.88
2023-05-05T08:25:23.775Z,1.90
2023-05-05T08:27:50.928Z,2.20
2023-05-05T08:30:21.737Z,2.17
2023-05-05T08:32:48.949Z,2.17
2023-05-05T08:35:16.183Z,2.30
2023-05-05T08:37:43.951Z,1.88
2023-05-05T08:40:14.522Z,1.85
2023-05-05T08:42:42.416Z,1.80
2023-05-05T08:45:11.213Z,2.22
2023-05-05T08:47:39.563Z,1.85
2023-05-05T08:50:10.210Z,2.33
2023-05-05T08:52:44.688Z,2.30
2023-05-05T08:55:20.795Z,2.03
2023-05-05T08:57:52.127Z,2.08
2023-05-05T09:00:20.805Z,3.00
2023-05-05T09:02:48.646Z,2.00
2023-05-05T09:05:16.515Z,2.40
2023-05-05T09:07:44.358Z,2.80
2023-05-05T09:10:12.834Z,2.47
2023-05-05T09:12:43.231Z,2.40
2023-05-05T09:15:12.102Z,2.33
2023-05-05T09:17:39.973Z,2.15
2023-05-05T09:20:08.389Z,2.38
2023-05-05T09:22:37.035Z,2.10
2023-05-05T09:25:06.548Z,1.92
2023-05-05T09:27:49.783Z,2.50
2023-05-05T09:30:27.402Z,2.28
2023-05-05T09:32:55.543Z,2.60
2023-05-05T09:35:23.617Z,2.10
2023-05-05T09:37:50.820Z,2.50
2023-05-05T09:40:20.201Z,2.50
2023-05-05T09:42:47.594Z,2.30
2023-05-05T09:45:17.775Z,1.90
2023-05-05T09:47:46.422Z,2.70
2023-05-05T09:50:19.125Z,2.10
2023-05-05T09:53:03.288Z,2.07
2023-05-05T09:58:18.556Z,2.08
2023-05-05T10:00:46.807Z,1.55
2023-05-05T10:03:14.041Z,1.60
2023-05-05T10:05:52.069Z,2.20
2023-05-05T10:08:25.111Z,2.08
2023-05-05T10:11:06.737Z,2.08
2023-05-05T10:13:38.589Z,2.10
2023-05-05T10:16:10.077Z,2.00
2023-05-05T10:18:40.504Z,1.95
2023-05-05T10:21:09.308Z,1.95
2023-05-05T10:23:49.795Z,2.30
2023-05-05T10:26:20.357Z,2.45
2023-05-05T10:28:57.088Z,2.33
2023-05-05T10:31:37.538Z,2.58
2023-05-05T10:34:10.394Z,2.20
2023-05-05T10:36:39.697Z,2.85
2023-05-05T10:39:11.177Z,2.15
2023-05-05T10:41:38.610Z,2.20
2023-05-05T10:44:07.137Z,1.95
2023-05-05T10:46:34.291Z,2.05
2023-05-05T10:49:32.282Z,2.15
2023-05-05T10:52:28.374Z,2.13
2023-05-05T10:55:21.597Z,1.90
2023-05-05T10:57:53.563Z,2.10
2023-05-05T11:00:38.639Z,2.08
2023-05-05T11:03:20.655Z,2.83
2023-05-05T11:06:07.794Z,5.57
2023-05-05T11:08:39.046Z,5.18
2023-05-05T11:11:06.832Z,2.42
2023-05-05T11:13:33.986Z,3.25
2023-05-05T11:16:04.904Z,2.40
2023-05-05T11:18:44.560Z,3.08
2023-05-05T11:21:16.692Z,2.20
2023-05-05T11:23:53.821Z,3.92
2023-05-05T11:26:51.650Z,4.25
2023-05-05T11:29:18.754Z,3.25
2023-05-05T11:31:48.040Z,2.28
2023-05-05T11:34:27.235Z,1.80
2023-05-05T11:37:08.101Z,2.00
2023-05-05T11:40:16.969Z,2.50
2023-05-05T11:42:44.132Z,2.15
2023-05-05T11:45:25.053Z,3.15
2023-05-05T11:47:52.139Z,2.55
2023-05-05T11:50:21.325Z,2.50
2023-05-05T11:52:48.624Z,2.15
2023-05-05T11:55:21.587Z,2.88
2023-05-05T11:57:48.866Z,2.50
2023-05-05T12:00:16.668Z,2.13
2023-05-05T12:02:43.886Z,2.28
2023-05-05T12:05:11.264Z,2.50
2023-05-05T12:07:38.424Z,2.20
2023-05-05T12:10:06.240Z,2.30
2023-05-05T12:12:38.675Z,1.70
2023-05-05T12:15:06.808Z,1.90
2023-05-05T12:17:45.192Z,2.10
2023-05-05T12:20:13.323Z,2.40
2023-05-05T12:22:41.214Z,2.00
2023-05-05T12:25:09.035Z,2.47
2023-05-05T12:27:36.403Z,1.60
2023-05-05T12:30:14.705Z,2.15
2023-05-05T12:32:41.924Z,1.90
2023-05-05T12:35:10.518Z,2.13
2023-05-05T12:37:38.327Z,2.20
2023-05-05T12:40:06.816Z,2.10
2023-05-05T12:42:39.319Z,2.45
2023-05-05T12:45:16.392Z,1.92
2023-05-05T12:47:45.021Z,1.80
2023-05-05T12:50:12.259Z,1.98
2023-05-05T12:52:44.631Z,1.73
2023-05-05T12:55:12.676Z,1.80
2023-05-05T12:57:58.624Z,2.00
2023-05-05T13:00:26.301Z,1.60
2023-05-05T13:02:53.555Z,1.90
2023-05-05T13:05:34.725Z,2.28
2023-05-05T13:08:02.393Z,2.63
2023-05-05T13:10:31.560Z,1.80
2023-05-05T13:12:58.810Z,1.80
2023-05-05T13:15:26.787Z,2.65
2023-05-05T13:18:01.457Z,1.90
2023-05-05T13:20:28.928Z,1.70
2023-05-05T13:22:55.960Z,1.85
2023-05-05T13:25:23.059Z,1.85
2023-05-05T13:27:50.712Z,2.00
2023-05-05T13:30:17.785Z,1.92
2023-05-05T13:32:44.841Z,2.30
2023-05-05T13:35:14.625Z,2.63
2023-05-05T13:37:44.550Z,1.90
2023-05-05T13:40:13.665Z,2.10
2023-05-05T13:42:49.614Z,1.95
2023-05-05T13:45:19.988Z,2.40
2023-05-05T13:47:50.039Z,1.85
2023-05-05T13:50:18.314Z,2.10
2023-05-05T13:52:45.584Z,1.95
2023-05-05T13:55:12.624Z,2.60
2023-05-05T13:57:39.698Z,2.30
2023-05-05T14:00:07.669Z,2.83
2023-05-05T14:02:34.761Z,2.28
2023-05-05T14:05:01.949Z,2.20
2023-05-05T14:07:29.433Z,2.50
2023-05-05T14:09:56.514Z,2.60
2023-05-05T14:12:23.915Z,2.63
2023-05-05T14:14:51.378Z,2.42
2023-05-05T14:17:18.497Z,2.33
2023-05-05T14:19:45.627Z,2.00
2023-05-05T14:22:12.687Z,2.50
2023-05-05T14:24:39.744Z,2.55
2023-05-05T14:27:06.813Z,2.47
2023-05-05T14:29:33.979Z,2.80
2023-05-05T14:32:01.235Z,2.70
2023-05-05T14:34:28.435Z,2.95
2023-05-05T14:36:55.682Z,2.95
2023-05-05T14:39:22.795Z,2.53
2023-05-05T14:41:49.933Z,2.83
2023-05-05T14:44:17.071Z,2.30
2023-05-05T14:46:45.974Z,2.40
2023-05-05T14:49:13.461Z,2.70
2023-05-05T14:51:40.835Z,2.45
2023-05-05T14:54:20.509Z,2.65
2023-05-05T14:56:54.349Z,2.30
2023-05-05T14:59:21.427Z,2.47
2023-05-05T15:01:48.641Z,2.88
2023-05-05T15:04:16.259Z,2.50
2023-05-05T15:06:43.348Z,2.47
2023-05-05T15:09:10.690Z,2.50
2023-05-05T15:11:38.308Z,2.45
2023-05-05T15:14:05.452Z,2.42
2023-05-05T15:16:35.000Z,2.80
2023-05-05T15:19:02.348Z,2.90
2023-05-05T15:21:29.442Z,2.55
2023-05-05T15:23:56.517Z,2.45
2023-05-05T15:26:24.236Z,2.22
2023-05-05T15:28:53.049Z,2.20
2023-05-05T15:31:20.170Z,2.10
2023-05-05T15:33:48.858Z,2.22
2023-05-05T15:36:17.816Z,2.13
2023-05-05T15:38:45.183Z,2.20
2023-05-05T15:41:12.197Z,2.22
2023-05-05T15:43:39.265Z,2.17
2023-05-05T15:46:06.703Z,2.58
2023-05-05T15:48:35.852Z,2.22
2023-05-05T15:51:02.949Z,2.50
2023-05-05T15:53:30.024Z,2.28
2023-05-05T15:55:57.030Z,2.45
2023-05-05T15:58:24.072Z,2.65
2023-05-05T16:00:51.205Z,2.40
2023-05-05T16:03:18.809Z,2.90
2023-05-05T16:05:47.459Z,2.80
2023-05-05T16:08:14.597Z,2.38
2023-05-05T16:10:41.668Z,2.50
2023-05-05T16:13:08.807Z,2.05
2023-05-05T16:15:36.239Z,2.45
2023-05-05T16:18:03.304Z,1.85
2023-05-05T16:20:30.934Z,2.05
2023-05-05T16:22:58.207Z,2.40
2023-05-05T16:25:25.285Z,2.25
2023-05-05T16:27:53.467Z,2.20
2023-05-05T16:30:21.438Z,2.60
2023-05-05T16:32:51.490Z,2.70
2023-05-05T16:35:18.728Z,2.35
2023-05-05T16:37:45.989Z,2.30
2023-05-05T16:40:13.344Z,2.63
2023-05-05T16:42:41.395Z,2.42
2023-05-05T16:45:10.077Z,2.72
2023-05-05T16:47:37.635Z,2.20
2023-05-05T16:50:05.170Z,2.33
2023-05-05T16:52:32.323Z,2.60
2023-05-05T16:54:59.533Z,2.50
2023-05-05T16:57:26.709Z,2.60
2023-05-05T16:59:56.497Z,2.22
2023-05-05T17:02:24.042Z,2.45
2023-05-05T17:04:51.186Z,2.50
2023-05-05T17:07:18.205Z,2.38
2023-05-05T17:09:45.477Z,2.55
2023-05-05T17:12:12.542Z,2.40
2023-05-05T17:14:39.986Z,2.55
2023-05-05T17:17:07.419Z,2.47
2023-05-05T17:19:34.467Z,2.60
2023-05-05T17:22:01.557Z,2.10
2023-05-05T17:24:28.679Z,2.50
2023-05-05T17:26:55.769Z,2.70
2023-05-05T17:29:23.536Z,2.30
2023-05-05T17:31:51.066Z,2.78
2023-05-05T17:34:18.156Z,2.60
2023-05-05T17:36:45.250Z,2.63
2023-05-05T17:39:12.321Z,2.63
2023-05-05T17:41:39.384Z,2.55
2023-05-05T17:44:06.418Z,2.78
2023-05-05T17:46:33.504Z,2.50
2023-05-05T17:49:00.729Z,2.88
2023-05-05T17:51:28.584Z,2.38
2023-05-05T17:53:55.654Z,2.60
2023-05-05T17:56:23.042Z,2.42
2023-05-05T17:58:50.230Z,2.60
2023-05-05T18:01:24.756Z,2.83
2023-05-05T18:03:52.111Z,2.75
2023-05-05T18:06:19.465Z,2.63
2023-05-05T18:08:46.946Z,2.97
2023-05-05T18:11:14.098Z,2.83
2023-05-05T18:13:41.567Z,2.65
2023-05-05T18:16:08.670Z,2.42
2023-05-05T18:18:36.189Z,2.60
2023-05-05T18:21:03.390Z,2.63
2023-05-05T18:23:30.448Z,2.88
2023-05-05T18:25:57.667Z,2.53
2023-05-05T18:28:24.688Z,2.50
2023-05-05T18:30:52.256Z,2.70
2023-05-05T18:33:19.609Z,2.05
2023-05-05T18:35:46.793Z,2.20
2023-05-05T18:38:13.829Z,2.42
2023-05-05T18:40:41.300Z,2.50
2023-05-05T18:43:08.355Z,2.30
2023-05-05T18:45:35.427Z,2.15
2023-05-05T18:48:02.679Z,2.70
2023-05-05T18:50:29.853Z,2.50
2023-05-05T18:52:57.021Z,2.33
2023-05-05T18:55:24.342Z,2.63
2023-05-05T18:57:51.399Z,2.30
2023-05-05T19:00:20.064Z,2.40
2023-05-05T19:02:47.300Z,2.40
2023-05-05T19:05:14.454Z,2.22
2023-05-05T19:07:41.693Z,2.90
2023-05-05T19:10:09.657Z,2.38
2023-05-05T19:12:36.812Z,2.00
2023-05-05T19:15:04.060Z,2.50
2023-05-05T19:17:31.276Z,2.00
2023-05-05T19:19:58.421Z,2.03
2023-05-05T19:22:25.958Z,2.30
2023-05-05T19:24:53.366Z,2.30
2023-05-05T19:27:20.488Z,2.05
2023-05-05T19:29:52.344Z,2.20
2023-05-05T19:32:21.246Z,2.28
2023-05-05T19:34:48.618Z,2.45
2023-05-05T19:37:15.764Z,2.00
2023-05-05T19:39:44.735Z,2.20
2023-05-05T19:42:12.436Z,1.95
2023-05-05T19:44:39.526Z,2.40
2023-05-05T19:47:07.213Z,2.58
2023-05-05T19:49:34.372Z,2.10
2023-05-05T19:52:01.443Z,2.67
2023-05-05T19:54:28.799Z,2.30
2023-05-05T19:56:57.453Z,2.03
2023-05-05T19:59:24.664Z,2.40
2023-05-05T20:01:51.906Z,2.38
2023-05-05T20:04:19.120Z,2.78
2023-05-05T20:06:46.233Z,2.38
2023-05-05T20:09:13.231Z,2.30
2023-05-05T20:11:40.304Z,2.10
2023-05-05T20:14:07.340Z,2.35
2023-05-05T20:16:34.809Z,2.22
2023-05-05T20:19:01.909Z,2.65
2023-05-05T20:21:29.341Z,2.30
2023-05-05T20:23:56.525Z,2.10
2023-05-05T20:26:24.737Z,2.40
2023-05-05T20:28:51.812Z,3.03
2023-05-05T20:31:19.078Z,2.63
2023-05-05T20:33:46.223Z,2.47
2023-05-05T20:36:13.339Z,2.78
2023-05-05T20:38:40.484Z,2.58
2023-05-05T20:41:07.515Z,2.55
2023-05-05T20:43:34.630Z,2.55
2023-05-05T20:46:02.987Z,2.10
2023-05-05T20:48:30.381Z,2.17
2023-05-05T20:50:58.962Z,2.30
2023-05-05T20:53:26.639Z,2.10
2023-05-05T20:55:53.681Z,2.00
2023-05-05T20:58:20.818Z,2.40
2023-05-05T21:00:48.464Z,1.95
2023-05-05T21:03:15.570Z,2.35
2023-05-05T21:05:43.163Z,2.33
2023-05-05T21:08:10.776Z,1.90
2023-05-05T21:10:38.667Z,2.22
2023-05-05T21:13:05.824Z,1.90
2023-05-05T21:15:34.163Z,2.03
2023-05-05T21:18:02.198Z,2.20
2023-05-05T21:20:29.253Z,2.13
2023-05-05T21:22:57.044Z,2.42
2023-05-05T21:25:24.607Z,2.35
2023-05-05T21:27:51.693Z,2.25
2023-05-05T21:30:18.836Z,2.10
2023-05-05T21:32:45.993Z,2.13
2023-05-05T21:35:13.409Z,2.00
2023-05-05T21:37:41.121Z,2.00
2023-05-05T21:40:14.235Z,1.90
2023-05-05T21:42:42.740Z,1.90
2023-05-05T21:45:11.883Z,2.13
2023-05-05T21:47:39.618Z,2.17
2023-05-05T21:50:07.471Z,1.50
2023-05-05T21:52:34.686Z,3.70
2023-05-05T21:55:01.956Z,2.10
2023-05-05T21:57:29.039Z,2.25
2023-05-05T21:59:56.087Z,1.83
2023-05-05T22:02:24.229Z,2.03
2023-05-05T22:04:52.093Z,1.90
2023-05-05T22:07:19.430Z,2.20
2023-05-05T22:09:46.866Z,1.73
2023-05-05T22:12:14.009Z,1.70
2023-05-05T22:14:41.116Z,2.10
2023-05-05T22:17:22.288Z,1.85
2023-05-05T22:19:49.761Z,1.75
2023-05-05T22:22:17.693Z,1.80
2023-05-05T22:24:44.731Z,1.65
2023-05-05T22:27:12.143Z,1.85
2023-05-05T22:29:39.746Z,3.42
2023-05-05T22:32:07.000Z,3.13
2023-05-05T22:34:35.974Z,3.90
2023-05-05T22:37:03.195Z,4.10
2023-05-05T22:39:30.815Z,3.97
2023-05-05T22:41:57.882Z,4.38
2023-05-05T22:44:24.925Z,3.47
2023-05-05T22:46:52.031Z,2.75
2023-05-05T22:49:19.146Z,2.60
2023-05-05T22:51:47.275Z,2.80
2023-05-05T22:54:14.328Z,3.05
2023-05-05T22:56:41.352Z,2.50
2023-05-05T22:59:08.514Z,2.38
2023-05-05T23:01:36.136Z,2.58
2023-05-05T23:04:03.475Z,2.20
2023-05-05T23:06:30.610Z,2.40
2023-05-05T23:08:57.780Z,2.13
2023-05-05T23:11:26.225Z,2.08
2023-05-05T23:13:53.733Z,2.05
2023-05-05T23:16:20.896Z,2.00
2023-05-05T23:18:47.923Z,2.00
2023-05-05T23:21:14.964Z,2.00
2023-05-05T23:23:42.038Z,2.03
2023-05-05T23:26:09.090Z,1.92
2023-05-05T23:28:36.348Z,2.03
2023-05-05T23:31:03.542Z,1.83
2023-05-05T23:33:30.665Z,1.90
2023-05-05T23:35:57.743Z,2.22
2023-05-05T23:38:24.846Z,1.90
2023-05-05T23:40:51.938Z,2.35
2023-05-05T23:43:19.245Z,1.90
2023-05-05T23:45:46.342Z,1.65
2023-05-05T23:48:13.419Z,1.77
2023-05-05T23:50:41.052Z,1.90
2023-05-05T23:53:08.101Z,2.17
2023-05-05T23:55:35.114Z,1.98
2023-05-05T23:58:02.230Z,1.67
